Here is the Quick Look data you requested

The Data originates at the National Weather Service, and is made available here by the UAlbany Department of Atmospheric and Environmental Sciences

Surface Observations

KNUI 202353Z AUTO 22007KT 10SM CLR 36/24 A2986 RMK AO2 SLP109 T03560239 10372
 20356 53005=
KNUI 210053Z AUTO 17003KT 10SM CLR 33/26 A2985 RMK AO2 SLP108 T03280256
KNUI 210053Z AUTO 17003KT 10SM CLR 33/26 A2985 RMK AO2 SLP108 T03280256=
KNUI 210153Z AUTO 00000KT 9SM CLR 30/26 A2986 RMK AO2 SLP112 T03000256
KNUI 210153Z AUTO 00000KT 9SM CLR 30/26 A2986 RMK AO2 SLP112 T03000256=
KNUI 210253Z AUTO 00000KT 9SM CLR 31/26 A2986 RMK AO2 SLP112 T03060256 53002
KNUI 210253Z AUTO 00000KT 9SM CLR 31/26 A2986 RMK AO2 SLP112 T03060256 53002=
KNUI 210353Z AUTO 21003KT 8SM CLR 32/26 A2986 RMK AO2 SLP111 T03220261
KNUI 210353Z AUTO 21003KT 8SM CLR 32/26 A2986 RMK AO2 SLP111 T03220261=
KNUI 210453Z AUTO 23006KT 10SM FEW070 32/25 A2986 RMK AO2 SLP111 T03220250
 403720278
KNUI 210453Z AUTO 23006KT 10SM FEW070 32/25 A2986 RMK AO2 SLP111 T03220250
 403720278=
KNUI 210553Z AUTO 25005KT 10SM CLR 32/25 A2986 RMK AO2 SLP112 T03170250 10356
 20300 53000
KNUI 210553Z AUTO 25005KT 10SM CLR 32/25 A2986 RMK AO2 SLP112 T03170250 10356
 20300 53000=
KNUI 210653Z AUTO 24005KT 10SM CLR 31/24 A2987 RMK AO2 SLP113 T03110244
KNUI 210653Z AUTO 24005KT 10SM CLR 31/24 A2987 RMK AO2 SLP113 T03110244=
KNUI 210753Z AUTO 26003KT 10SM CLR 31/24 A2986 RMK AO2 SLP110 T03060244
KNUI 210753Z AUTO 26003KT 10SM CLR 31/24 A2986 RMK AO2 SLP110 T03060244=
KNUI 210853Z AUTO 00000KT 8SM CLR 28/24 A2984 RMK AO2 SLP103 T02830244 58009
KNUI 210853Z AUTO 00000KT 8SM CLR 28/24 A2984 RMK AO2 SLP103 T02830244 58009=
KNUI 210953Z AUTO 21004KT 8SM CLR 29/25 A2985 RMK AO2 SLP109 T02940250
KNUI 210953Z AUTO 21004KT 8SM CLR 29/25 A2985 RMK AO2 SLP109 T02940250=
KNUI 211053Z AUTO 24007KT 8SM CLR 30/25 A2987 RMK AO2 SLP113 T03000250
KNUI 211053Z AUTO 24007KT 8SM CLR 30/25 A2987 RMK AO2 SLP113 T03000250=
KNUI 211153Z AUTO 23007KT 9SM CLR 31/25 A2988 RMK AO2 SLP119 T03060250 10317
 20278 53016
KNUI 211153Z AUTO 23007KT 9SM CLR 31/25 A2988 RMK AO2 SLP119 T03060250 10317
 20278 53016=
KNUI 211253Z AUTO 27004KT 9SM CLR 32/25 A2990 RMK AO2 SLP124 T03170250
KNUI 211253Z AUTO 27004KT 9SM CLR 32/25 A2990 RMK AO2 SLP124 T03170250=
KNUI 211353Z AUTO 29005KT 10SM CLR 34/26 A2990 RMK AO2 SLP125 T03390256
KNUI 211353Z AUTO 29005KT 10SM CLR 34/26 A2990 RMK AO2 SLP125 T03390256=
KNUI 211453Z AUTO VRB05KT 10SM CLR 36/25 A2990 RMK AO2 SLP124 T03610250 50005
KNUI 211453Z AUTO VRB05KT 10SM CLR 36/25 A2990 RMK AO2 SLP124 T03610250 50005=
KNUI 211553Z AUTO 26007KT 230V290 10SM CLR 36/26 A2991 RMK AO2 SLP126 T03610256
KNUI 211553Z AUTO 26007KT 230V290 10SM CLR 36/26 A2991 RMK AO2 SLP126 T03610256=
KNUI 211653Z AUTO 28008KT 10SM CLR 37/23 A2989 RMK AO2 SLP122 T03670233
KNUI 211653Z AUTO 28008KT 10SM CLR 37/23 A2989 RMK AO2 SLP122 T03670233=
KNUI 211753Z AUTO 27006KT 10SM CLR 37/23 A2988 RMK AO2 SLP117 T03720233 10372
 20306 58007
KNUI 211753Z AUTO 27006KT 10SM CLR 37/23 A2988 RMK AO2 SLP117 T03720233 10372
 20306 58007=
KNUI 211853Z AUTO 20007KT 170V230 10SM FEW055 37/23 A2987 RMK AO2 SLP112
 T03720233
KNUI 211853Z AUTO 20007KT 170V230 10SM FEW055 37/23 A2987 RMK AO2 SLP112
 T03720233=
KNUI 211953Z AUTO 23004KT 10SM CLR 38/24 A2985 RMK AO2 SLP108 T03780239
KNUI 211953Z AUTO 23004KT 10SM CLR 38/24 A2985 RMK AO2 SLP108 T03780239=
KNUI 212053Z AUTO VRB03KT 10SM FEW060 37/24 A2985 RMK AO2 SLP107 T03720244 56011
KNUI 212053Z AUTO VRB03KT 10SM FEW060 37/24 A2985 RMK AO2 SLP107 T03720244
 56011=
KNUI 212153Z AUTO 12005KT 10SM CLR 37/26 A2984 RMK AO2 SLP104 T03670256
KNUI 212153Z AUTO 12005KT 10SM CLR 37/26 A2984 RMK AO2 SLP104 T03670256=
KNUI 212253Z AUTO 00000KT 10SM CLR 37/26 A2983 RMK AO2 SLP102 T03670256
KNUI 212253Z AUTO 00000KT 10SM CLR 37/26 A2983 RMK AO2 SLP102 T03670256=
KNUI 212353Z AUTO 25009KT 10SM FEW060 36/24 A2985 RMK AO2 SLP106 T03560239
 10378 20350 55001
KNUI 212353Z AUTO 25009KT 10SM FEW060 36/24 A2985 RMK AO2 SLP106 T03560239
 10378 20350 55001=
KNUI 220053Z AUTO 26007KT 10SM CLR 34/23 A2986 RMK AO2 SLP109 T03390228
KNUI 220053Z AUTO 26007KT 10SM CLR 34/23 A2986 RMK AO2 SLP109 T03390228=
KNUI 220153Z AUTO 25005KT 10SM CLR 33/23 A2987 RMK AO2 SLP115 T03280228
KNUI 220153Z AUTO 25005KT 10SM CLR 33/23 A2987 RMK AO2 SLP115 T03280228=
KNUI 220253Z AUTO 25006KT 10SM CLR 32/22 A2988 RMK AO2 SLP116 T03170222 51010
KNUI 220253Z AUTO 25006KT 10SM CLR 32/22 A2988 RMK AO2 SLP116 T03170222 51010=
KNUI 220353Z AUTO 24006KT 10SM CLR 30/22 A2987 RMK AO2 SLP114 T03000217
KNUI 220353Z AUTO 24006KT 10SM CLR 30/22 A2987 RMK AO2 SLP114 T03000217=
KNUI 220453Z AUTO 27004KT 10SM CLR 30/22 A2988 RMK AO2 SLP117 T03000222
 403780278
KNUI 220453Z AUTO 27004KT 10SM CLR 30/22 A2988 RMK AO2 SLP117 T03000222
 403780278=
KNUI 220553Z AUTO 26004KT 10SM CLR 29/22 A2989 RMK AO2 SLP120 T02940222 10356
 20294 53005
KNUI 220553Z AUTO 26004KT 10SM CLR 29/22 A2989 RMK AO2 SLP120 T02940222 10356
 20294 53005=